Time;durP1;ratioP1;P1;durP2;ratioP2;P2;SDS_P1;SDS_P2;PMS_P1;PMS_P2;Temp;Humidity;BMP_temperature;BMP_pressure;BME280_temperature;BME280_humidity;BME280_pressure;Samples;Min_cycle;Max_cycle;Signal;HPM_P1;HPM_P2
2022/04/14 00:02:03;;;;;;;15.30;6.65;;;;;;;-142.91;100.00;56616.03;5016972;28;20207;-71
2022/04/14 00:04:32;;;;;;;8.52;6.43;;;;;;;-142.91;100.00;56616.03;5016358;28;20203;-70
2022/04/14 00:06:59;;;;;;;9.32;5.93;;;;;;;-142.91;100.00;56616.03;5015964;28;20373;-69
2022/04/14 00:09:27;;;;;;;9.57;6.13;;;;;;;-142.91;100.00;56616.03;5015980;28;20210;-70
2022/04/14 00:11:53;;;;;;;12.35;6.80;;;;;;;-142.91;100.00;56616.03;5016780;28;20290;-69
2022/04/14 00:14:20;;;;;;;10.98;6.18;;;;;;;-142.91;100.00;56616.03;5016144;28;20238;-70
2022/04/14 00:16:48;;;;;;;6.47;5.85;;;;;;;-142.91;100.00;56616.03;5016655;28;20231;-70
2022/04/14 00:19:15;;;;;;;8.20;5.47;;;;;;;-142.91;100.00;56616.03;5015890;28;20204;-70
2022/04/14 00:21:42;;;;;;;11.45;6.35;;;;;;;-142.91;100.00;56616.03;5015821;28;20207;-70
2022/04/14 00:24:09;;;;;;;8.55;5.55;;;;;;;-142.91;100.00;56616.03;5015926;28;20765;-71
2022/04/14 00:26:36;;;;;;;7.85;5.40;;;;;;;-142.91;100.00;56616.03;5015858;28;20726;-71
2022/04/14 00:29:03;;;;;;;9.75;6.13;;;;;;;-142.91;100.00;56616.03;5016071;28;20227;-70
2022/04/14 00:31:30;;;;;;;7.38;6.25;;;;;;;-142.91;100.00;56616.03;5016209;28;20196;-70
2022/04/14 00:33:58;;;;;;;6.88;5.57;;;;;;;-142.91;100.00;56616.03;5014959;28;20214;-69
2022/04/14 00:36:25;;;;;;;8.85;5.57;;;;;;;-142.91;100.00;56616.03;5015636;28;20212;-70
2022/04/14 00:38:52;;;;;;;6.60;5.72;;;;;;;-142.91;100.00;56616.03;5015728;28;20230;-69
2022/04/14 00:41:18;;;;;;;9.73;6.30;;;;;;;-142.91;100.00;56616.03;5015791;28;20210;-69
2022/04/14 00:43:45;;;;;;;6.80;5.43;;;;;;;-142.91;100.00;56616.03;5015236;28;20325;-70
2022/04/14 00:46:12;;;;;;;6.78;5.53;;;;;;;-142.91;100.00;56616.03;5015849;28;20634;-70
2022/04/14 00:48:39;;;;;;;11.73;6.10;;;;;;;-142.91;100.00;56616.03;5014868;28;20741;-70
2022/04/14 00:51:07;;;;;;;10.15;5.68;;;;;;;-142.91;100.00;56616.03;5016296;28;20210;-70
2022/04/14 00:53:36;;;;;;;15.00;5.80;;;;;;;-142.91;100.00;56616.03;5016003;28;20242;-69
2022/04/14 00:56:03;;;;;;;6.05;5.38;;;;;;;-142.91;100.00;56616.03;5015751;28;20291;-69
2022/04/14 00:58:30;;;;;;;6.47;5.80;;;;;;;-142.91;100.00;56616.03;5014960;28;20206;-71
2022/04/14 01:00:57;;;;;;;7.00;5.70;;;;;;;-142.91;100.00;56616.03;5015858;28;20192;-72
2022/04/14 01:03:24;;;;;;;8.98;5.60;;;;;;;-142.91;100.00;56616.03;5015070;28;20195;-72
2022/04/14 01:05:53;;;;;;;11.85;5.72;;;;;;;-142.91;100.00;56616.03;5016077;28;20204;-69
2022/04/14 01:08:23;;;;;;;10.98;5.82;;;;;;;-142.91;100.00;56616.03;5014859;28;20235;-72
2022/04/14 01:10:50;;;;;;;8.13;5.75;;;;;;;-142.91;100.00;56616.03;5015643;28;20208;-72
2022/04/14 01:13:18;;;;;;;7.22;5.90;;;;;;;-142.91;100.00;56616.03;5014727;28;21299;-69
2022/04/14 01:15:46;;;;;;;7.25;5.57;;;;;;;-142.91;100.00;56616.03;5015439;28;20614;-69
2022/04/14 01:18:13;;;;;;;6.75;5.63;;;;;;;-142.91;100.00;56616.03;5014861;28;20206;-70
2022/04/14 01:20:42;;;;;;;7.40;6.13;;;;;;;-142.91;100.00;56616.03;5015448;28;20602;-71
2022/04/14 01:23:10;;;;;;;7.57;5.90;;;;;;;-142.91;100.00;56616.03;5015421;28;20214;-69
2022/04/14 01:25:39;;;;;;;11.70;5.72;;;;;;;-142.91;100.00;56616.03;5015800;28;20214;-72
2022/04/14 01:28:07;;;;;;;11.80;5.82;;;;;;;-142.91;100.00;56616.03;5015790;28;20227;-69
2022/04/14 01:30:36;;;;;;;7.63;5.85;;;;;;;-142.91;100.00;56616.03;5015430;28;20204;-70
2022/04/14 01:33:04;;;;;;;6.63;5.95;;;;;;;-142.91;100.00;56616.03;5015306;28;20199;-70
2022/04/14 01:35:31;;;;;;;5.82;5.25;;;;;;;-142.91;100.00;56616.03;5015462;28;20606;-70
2022/04/14 01:37:58;;;;;;;6.60;5.93;;;;;;;-142.91;100.00;56616.03;5015695;28;20867;-69
2022/04/14 01:40:24;;;;;;;12.65;6.63;;;;;;;-142.91;100.00;56616.03;5015117;28;20221;-71
2022/04/14 01:42:53;;;;;;;9.82;6.78;;;;;;;-142.91;100.00;56616.03;5015422;28;20207;-70
2022/04/14 01:45:19;;;;;;;8.40;6.53;;;;;;;-142.91;100.00;56616.03;5014706;28;21256;-73
2022/04/14 01:47:47;;;;;;;14.80;7.93;;;;;;;-142.91;100.00;56616.03;5015910;28;20220;-70
2022/04/14 01:50:16;;;;;;;9.82;6.85;;;;;;;-142.91;100.00;56616.03;5014848;28;20589;-72
2022/04/14 01:52:45;;;;;;;13.77;6.82;;;;;;;-142.91;100.00;56616.03;5015866;28;20208;-70
2022/04/14 01:55:13;;;;;;;14.68;7.28;;;;;;;-142.91;100.00;56616.03;5018371;28;20297;-69
2022/04/14 01:57:40;;;;;;;9.15;7.28;;;;;;;-142.91;100.00;56616.03;5018899;28;20980;-70
2022/04/14 02:00:10;;;;;;;7.53;6.72;;;;;;;-142.91;100.00;56616.03;5018480;28;20226;-72
2022/04/14 02:02:36;;;;;;;8.57;6.85;;;;;;;-142.91;100.00;56616.03;5018998;28;20587;-72
2022/04/14 02:05:04;;;;;;;11.73;7.15;;;;;;;-142.91;100.00;56616.03;5018537;28;20203;-70
2022/04/14 02:07:32;;;;;;;10.65;6.60;;;;;;;-142.91;100.00;56616.03;5018737;28;20210;-71
2022/04/14 02:09:59;;;;;;;9.70;6.20;;;;;;;-142.91;100.00;56616.03;5017968;28;21774;-72
2022/04/14 02:12:26;;;;;;;9.68;6.03;;;;;;;-142.91;100.00;56616.03;5018729;28;20239;-69
2022/04/14 02:14:53;;;;;;;10.93;7.50;;;;;;;-142.91;100.00;56616.03;5018698;28;20203;-69
2022/04/14 02:17:22;;;;;;;9.65;6.18;;;;;;;-142.91;100.00;56616.03;5018405;28;20219;-70
2022/04/14 02:19:49;;;;;;;8.80;6.40;;;;;;;-142.91;100.00;56616.03;5017993;28;20614;-72
2022/04/14 02:22:18;;;;;;;13.55;7.60;;;;;;;-142.91;100.00;56616.03;5018879;28;20208;-71
2022/04/14 02:24:45;;;;;;;6.85;5.70;;;;;;;-142.91;100.00;56616.03;5018193;28;20214;-70
2022/04/14 02:27:12;;;;;;;11.00;6.65;;;;;;;-142.91;100.00;56616.03;5018792;28;20222;-69
2022/04/14 02:29:38;;;;;;;8.05;5.60;;;;;;;-142.91;100.00;56616.03;5018046;28;20242;-70
2022/04/14 02:32:06;;;;;;;12.02;6.47;;;;;;;-142.91;100.00;56616.03;5018658;28;20204;-70
2022/04/14 02:34:34;;;;;;;6.93;6.13;;;;;;;-142.91;100.00;56616.03;5017605;28;20666;-70
2022/04/14 02:37:01;;;;;;;9.50;6.10;;;;;;;-142.91;100.00;56616.03;5018407;28;20820;-70
2022/04/14 02:39:28;;;;;;;8.10;6.15;;;;;;;-142.91;100.00;56616.03;5017869;28;20251;-69
2022/04/14 02:41:54;;;;;;;10.15;6.80;;;;;;;-142.91;100.00;56616.03;5017801;28;20238;-71
2022/04/14 02:44:21;;;;;;;18.60;6.32;;;;;;;-142.91;100.00;56616.03;5018017;28;20204;-71
2022/04/14 02:46:50;;;;;;;6.95;6.32;;;;;;;-142.91;100.00;56616.03;5018203;28;20293;-71
2022/04/14 02:49:17;;;;;;;13.23;6.70;;;;;;;-142.91;100.00;56616.03;5017439;28;21685;-72
2022/04/14 02:51:45;;;;;;;12.23;5.53;;;;;;;-142.91;100.00;56616.03;5017205;28;20648;-70
2022/04/14 02:54:12;;;;;;;7.03;6.32;;;;;;;-142.91;100.00;56616.03;5017542;28;20257;-71
2022/04/14 02:56:38;;;;;;;9.18;5.93;;;;;;;-142.91;100.00;56616.03;5018062;28;21954;-69
2022/04/14 02:59:05;;;;;;;6.13;5.07;;;;;;;-142.91;100.00;56616.03;5017408;28;21321;-70
2022/04/14 03:01:32;;;;;;;10.05;5.30;;;;;;;-142.91;100.00;56616.03;5017337;28;20250;-70
2022/04/14 03:03:58;;;;;;;7.40;5.38;;;;;;;-142.91;100.00;56616.03;5017427;28;20256;-70
2022/04/14 03:06:25;;;;;;;9.18;5.93;;;;;;;-142.91;100.00;56616.03;5017469;28;20710;-70
2022/04/14 03:08:53;;;;;;;6.65;5.50;;;;;;;-142.91;100.00;56616.03;5017552;28;20800;-72
2022/04/14 03:11:20;;;;;;;9.32;7.13;;;;;;;-142.91;100.00;56616.03;5018023;28;20204;-73
2022/04/14 03:13:47;;;;;;;13.25;6.10;;;;;;;-142.91;100.00;56616.03;5017463;28;20707;-70
2022/04/14 03:16:14;;;;;;;7.40;5.55;;;;;;;-142.91;100.00;56616.03;5017289;28;20313;-70
2022/04/14 03:18:41;;;;;;;11.23;5.60;;;;;;;-142.91;100.00;56616.03;5016972;28;20214;-70
2022/04/14 03:21:07;;;;;;;16.48;5.88;;;;;;;-142.91;100.00;56616.03;5017481;28;20200;-70
2022/04/14 03:23:34;;;;;;;11.43;6.20;;;;;;;-142.91;100.00;56616.03;5017842;28;20208;-69
2022/04/14 03:26:03;;;;;;;6.85;5.65;;;;;;;-142.91;100.00;56616.03;5018036;28;20207;-71
2022/04/14 03:28:31;;;;;;;7.28;5.90;;;;;;;-142.91;100.00;56616.03;5017208;28;20232;-71
2022/04/14 03:30:57;;;;;;;16.30;8.32;;;;;;;-142.91;100.00;56616.03;5017292;28;20262;-71
2022/04/14 03:33:24;;;;;;;21.45;10.15;;;;;;;-142.91;100.00;56616.03;5017023;28;20235;-69
2022/04/14 03:35:51;;;;;;;17.95;9.15;;;;;;;-142.91;100.00;56616.03;5017666;28;20272;-69
2022/04/14 03:38:17;;;;;;;12.35;9.20;;;;;;;-142.91;100.00;56616.03;5017691;28;20207;-69
2022/04/14 03:40:44;;;;;;;9.07;6.70;;;;;;;-142.91;100.00;56616.03;5017023;28;20212;-69
2022/04/14 03:43:12;;;;;;;9.63;6.78;;;;;;;-142.91;100.00;56616.03;5017181;28;20281;-69
2022/04/14 03:45:39;;;;;;;8.07;6.25;;;;;;;-142.91;100.00;56616.03;5017142;28;20211;-70
2022/04/14 03:48:06;;;;;;;13.25;6.78;;;;;;;-142.91;100.00;56616.03;5017338;28;20349;-69
2022/04/14 03:50:33;;;;;;;23.33;11.77;;;;;;;-142.91;100.00;56616.03;5017393;28;20265;-71
2022/04/14 03:52:59;;;;;;;21.08;9.80;;;;;;;-142.91;100.00;56616.03;5016306;28;20226;-70
2022/04/14 03:55:26;;;;;;;10.43;7.53;;;;;;;-142.91;100.00;56616.03;5016705;28;20262;-69
2022/04/14 03:57:53;;;;;;;14.52;7.22;;;;;;;-142.91;100.00;56616.03;5016964;28;20239;-69
2022/04/14 04:00:21;;;;;;;16.88;7.22;;;;;;;-142.91;100.00;56616.03;5016095;28;20236;-69
2022/04/14 04:02:47;;;;;;;11.85;7.22;;;;;;;-142.91;100.00;56616.03;5017169;28;20231;-71
2022/04/14 04:05:14;;;;;;;15.63;7.57;;;;;;;-142.91;100.00;56616.03;5016540;28;20216;-69
2022/04/14 04:07:41;;;;;;;14.65;8.18;;;;;;;-142.91;100.00;56616.03;5017448;28;20284;-69
2022/04/14 04:10:08;;;;;;;18.65;9.30;;;;;;;-142.91;100.00;56616.03;5016417;28;20320;-69
2022/04/14 04:12:35;;;;;;;18.23;7.45;;;;;;;-142.91;100.00;56616.03;5016561;28;20239;-69
2022/04/14 04:15:02;;;;;;;13.40;7.57;;;;;;;-142.91;100.00;56616.03;5016027;28;20281;-69
2022/04/14 04:17:30;;;;;;;14.80;7.43;;;;;;;-142.91;100.00;56616.03;5015930;28;20238;-69
2022/04/14 04:19:57;;;;;;;23.15;8.63;;;;;;;-142.91;100.00;56616.03;5016634;28;20859;-69
2022/04/14 04:22:23;;;;;;;10.80;7.95;;;;;;;-142.91;100.00;56616.03;5016623;28;20231;-71
2022/04/14 04:24:50;;;;;;;10.77;7.43;;;;;;;-142.91;100.00;56616.03;5016159;28;20285;-69
2022/04/14 04:27:17;;;;;;;11.68;6.90;;;;;;;-142.91;100.00;56616.03;5016542;28;20293;-71
2022/04/14 04:29:43;;;;;;;12.15;6.85;;;;;;;-142.91;100.00;56616.03;5015668;28;20305;-70
2022/04/14 04:32:10;;;;;;;9.13;5.80;;;;;;;-142.91;100.00;56616.03;5016522;28;20257;-69
2022/04/14 04:34:38;;;;;;;39.97;21.48;;;;;;;-142.91;100.00;56616.03;5016124;28;20276;-71
2022/04/14 04:37:05;;;;;;;72.05;31.10;;;;;;;-142.91;100.00;56616.03;5016444;28;20231;-70
2022/04/14 04:39:32;;;;;;;17.73;9.45;;;;;;;-142.91;100.00;56616.03;5015811;28;20239;-70
2022/04/14 04:41:59;;;;;;;15.68;8.27;;;;;;;-142.91;100.00;56616.03;5015712;28;20266;-69
2022/04/14 04:44:25;;;;;;;21.60;7.93;;;;;;;-142.91;100.00;56616.03;5016263;28;20231;-71
2022/04/14 04:46:52;;;;;;;16.98;8.20;;;;;;;-142.91;100.00;56616.03;5016428;28;20217;-72
2022/04/14 04:49:19;;;;;;;8.30;6.45;;;;;;;-142.91;100.00;56616.03;5015492;28;20227;-69
2022/04/14 04:51:47;;;;;;;10.93;6.93;;;;;;;-142.91;100.00;56616.03;5016236;28;20196;-71
2022/04/14 04:54:13;;;;;;;15.82;7.65;;;;;;;-142.91;100.00;56616.03;5015985;28;20277;-69
2022/04/14 04:56:40;;;;;;;21.90;9.20;;;;;;;-142.91;100.00;56616.03;5016045;28;20196;-70
2022/04/14 04:59:09;;;;;;;14.30;7.80;;;;;;;-142.91;100.00;56616.03;5015991;28;20876;-73
2022/04/14 05:01:35;;;;;;;11.25;7.40;;;;;;;-142.91;100.00;56616.03;5015791;28;20637;-69
2022/04/14 05:04:02;;;;;;;17.73;9.43;;;;;;;-142.91;100.00;56616.03;5015964;28;20753;-71
2022/04/14 05:06:29;;;;;;;14.15;7.43;;;;;;;-142.91;100.00;56616.03;5016032;28;20753;-73
2022/04/14 05:08:57;;;;;;;12.45;7.47;;;;;;;-142.91;100.00;56616.03;5014511;28;20715;-70
2022/04/14 05:11:23;;;;;;;12.25;6.90;;;;;;;-142.91;100.00;56616.03;5015447;28;20711;-70
2022/04/14 05:13:50;;;;;;;11.38;7.18;;;;;;;-142.91;100.00;56616.03;5015936;28;20263;-73
2022/04/14 05:16:17;;;;;;;13.02;6.03;;;;;;;-142.91;100.00;56616.03;5016133;28;20273;-72
2022/04/14 05:18:43;;;;;;;9.10;6.90;;;;;;;-142.91;100.00;56616.03;5015551;28;20554;-71
2022/04/14 05:21:10;;;;;;;7.47;6.70;;;;;;;-142.91;100.00;56616.03;5015621;28;20678;-71
2022/04/14 05:23:37;;;;;;;12.80;7.50;;;;;;;-142.91;100.00;56616.03;5015044;28;20828;-70
2022/04/14 05:26:05;;;;;;;9.32;6.95;;;;;;;-142.91;100.00;56616.03;5015749;28;20227;-71
2022/04/14 05:28:32;;;;;;;13.32;7.95;;;;;;;-142.91;100.00;56616.03;5016809;28;20200;-73
2022/04/14 05:30:58;;;;;;;10.27;6.57;;;;;;;-142.91;100.00;56616.03;5019540;28;20277;-73
2022/04/14 05:33:25;;;;;;;10.55;7.18;;;;;;;-142.91;100.00;56616.03;5019175;28;20207;-73
2022/04/14 05:35:52;;;;;;;12.73;6.53;;;;;;;-142.91;100.00;56616.03;5020073;28;20617;-72
2022/04/14 05:38:18;;;;;;;13.77;7.43;;;;;;;-142.91;100.00;56616.03;5018961;28;20235;-70
2022/04/14 05:40:46;;;;;;;8.63;7.53;;;;;;;-142.91;100.00;56616.03;5019629;28;20195;-70
2022/04/14 05:43:18;;;;;;;15.85;8.38;;;;;;;-142.91;100.00;56616.03;5019169;28;20587;-73
2022/04/14 05:45:47;;;;;;;10.50;9.23;;;;;;;-142.91;100.00;56616.03;5019381;28;20204;-70
2022/04/14 05:48:14;;;;;;;12.43;8.95;;;;;;;-142.91;100.00;56616.03;5019122;28;20203;-72
2022/04/14 05:50:42;;;;;;;12.23;9.00;;;;;;;-142.91;100.00;56616.03;5018837;28;20242;-73
2022/04/14 05:53:09;;;;;;;12.75;8.98;;;;;;;-142.91;100.00;56616.03;5018459;28;20211;-73
2022/04/14 05:55:36;;;;;;;15.57;10.23;;;;;;;-142.91;100.00;56616.03;5019521;28;20231;-71
2022/04/14 05:58:04;;;;;;;19.85;14.63;;;;;;;-142.91;100.00;56616.03;5018753;28;20211;-71
2022/04/14 06:00:33;;;;;;;24.65;12.40;;;;;;;-142.91;100.00;56616.03;5018692;28;20235;-73
2022/04/14 06:03:00;;;;;;;23.00;11.23;;;;;;;-142.91;100.00;56616.03;5018911;28;20885;-71
2022/04/14 06:05:28;;;;;;;22.73;11.02;;;;;;;-142.91;100.00;56616.03;5018756;28;21050;-71
2022/04/14 06:07:55;;;;;;;15.55;10.32;;;;;;;-142.91;100.00;56616.03;5018669;28;20674;-72
2022/04/14 06:10:22;;;;;;;19.70;9.82;;;;;;;-142.91;100.00;56616.03;5018775;28;20727;-73
2022/04/14 06:12:49;;;;;;;17.75;9.20;;;;;;;-142.91;100.00;56616.03;5018210;28;20250;-71
2022/04/14 06:15:16;;;;;;;11.73;9.30;;;;;;;-142.91;100.00;56616.03;5019039;28;20204;-73
2022/04/14 06:17:45;;;;;;;13.48;9.57;;;;;;;-142.91;100.00;56616.03;5018503;28;21488;-73
2022/04/14 06:20:13;;;;;;;17.80;9.73;;;;;;;-142.91;100.00;56616.03;5019111;28;20196;-72
2022/04/14 06:22:40;;;;;;;14.73;9.82;;;;;;;-142.91;100.00;56616.03;5018288;28;20289;-72
2022/04/14 06:25:12;;;;;;;19.15;10.45;;;;;;;-142.91;100.00;56616.03;5018674;28;20215;-73
2022/04/14 06:27:40;;;;;;;16.90;10.18;;;;;;;-142.91;100.00;56616.03;5018335;28;20591;-73
2022/04/14 06:30:08;;;;;;;11.05;8.70;;;;;;;-142.91;100.00;56616.03;5018898;28;20293;-72
2022/04/14 06:32:35;;;;;;;12.75;9.35;;;;;;;-142.91;100.00;56616.03;5017891;28;20608;-72
2022/04/14 06:35:04;;;;;;;12.32;8.50;;;;;;;-142.91;100.00;56616.03;5018418;28;20793;-73
2022/04/14 06:37:31;;;;;;;11.50;8.43;;;;;;;-142.91;100.00;56616.03;5018354;28;20777;-72
2022/04/14 06:39:57;;;;;;;12.10;8.80;;;;;;;-142.91;100.00;56616.03;5017838;28;20235;-72
2022/04/14 06:42:24;;;;;;;12.05;9.23;;;;;;;-142.91;100.00;56616.03;5017749;28;20330;-70
2022/04/14 06:44:51;;;;;;;13.38;8.70;;;;;;;-142.91;100.00;56616.03;5018250;28;20212;-72
2022/04/14 06:47:18;;;;;;;9.55;8.27;;;;;;;-142.91;100.00;56616.03;5018133;28;20219;-71
2022/04/14 06:49:44;;;;;;;13.50;9.00;;;;;;;-142.91;100.00;56616.03;5018362;28;20651;-72
2022/04/14 06:52:12;;;;;;;11.50;7.85;;;;;;;-142.91;100.00;56616.03;5017767;28;20749;-71
2022/04/14 06:54:39;;;;;;;16.17;10.35;;;;;;;-142.91;100.00;56616.03;5018452;28;20212;-74
2022/04/14 06:57:06;;;;;;;11.90;8.73;;;;;;;-142.91;100.00;56616.03;5017412;28;20219;-70
2022/04/14 06:59:32;;;;;;;10.48;7.13;;;;;;;-142.91;100.00;56616.03;5018107;28;20255;-71
2022/04/14 07:01:59;;;;;;;13.18;8.05;;;;;;;-142.91;100.00;56616.03;5017572;28;20223;-70
2022/04/14 07:04:27;;;;;;;16.10;10.10;;;;;;;-142.91;100.00;56616.03;5018643;28;20210;-70
2022/04/14 07:06:53;;;;;;;14.35;9.65;;;;;;;-142.91;100.00;56616.03;5018148;28;20211;-73
2022/04/14 07:09:23;;;;;;;19.50;13.20;;;;;;;-142.91;100.00;56616.03;5017949;28;20232;-71
2022/04/14 07:11:50;;;;;;;18.65;11.57;;;;;;;-142.91;100.00;56616.03;5017365;28;20301;-74
2022/04/14 07:14:19;;;;;;;36.45;10.95;;;;;;;-142.91;100.00;56616.03;5017904;28;20784;-72
2022/04/14 07:16:47;;;;;;;8.63;7.35;;;;;;;-142.91;100.00;56616.03;5017344;28;20216;-71
2022/04/14 07:19:14;;;;;;;7.32;6.60;;;;;;;-142.91;100.00;56616.03;5017869;28;20211;-70
2022/04/14 07:21:40;;;;;;;7.75;7.00;;;;;;;-142.91;100.00;56616.03;5016759;28;20203;-73
2022/04/14 07:24:08;;;;;;;7.75;5.75;;;;;;;-142.91;100.00;56616.03;5017295;28;20216;-73
2022/04/14 07:26:36;;;;;;;7.78;7.07;;;;;;;-142.91;100.00;56616.03;5016952;28;21207;-71
2022/04/14 07:29:03;;;;;;;8.52;6.90;;;;;;;-142.91;100.00;56616.03;5017675;28;20339;-74
2022/04/14 07:31:31;;;;;;;8.02;6.07;;;;;;;-142.91;100.00;56616.03;5016986;28;20207;-72
2022/04/14 07:33:58;;;;;;;11.43;6.40;;;;;;;-142.91;100.00;56616.03;5017661;28;20200;-72
2022/04/14 07:36:26;;;;;;;7.75;6.57;;;;;;;-142.91;100.00;56616.03;5016009;28;20281;-72
2022/04/14 07:38:53;;;;;;;11.13;7.20;;;;;;;-142.91;100.00;56616.03;5014871;28;20286;-73
2022/04/14 07:41:20;;;;;;;8.20;7.32;;;;;;;-142.91;100.00;56616.03;5017248;28;20219;-71
2022/04/14 07:43:48;;;;;;;19.13;9.05;;;;;;;-142.91;100.00;56616.03;5016579;28;20195;-70
2022/04/14 07:46:15;;;;;;;9.82;8.82;;;;;;;-142.91;100.00;56616.03;5017214;28;20200;-71
2022/04/14 07:48:42;;;;;;;8.90;8.07;;;;;;;-142.91;100.00;56616.03;5016048;28;20211;-70
2022/04/14 07:51:09;;;;;;;10.05;7.93;;;;;;;-142.91;100.00;56616.03;5015652;28;20289;-71
2022/04/14 07:53:37;;;;;;;16.75;10.98;;;;;;;-142.91;100.00;56616.03;5016523;28;20274;-70
2022/04/14 07:56:05;;;;;;;10.02;7.53;;;;;;;-142.91;100.00;56616.03;5015971;28;20207;-71
2022/04/14 07:58:32;;;;;;;16.05;10.40;;;;;;;-142.91;100.00;56616.03;5017081;28;20196;-71
2022/04/14 08:01:00;;;;;;;11.38;7.50;;;;;;;-142.91;100.00;56616.03;5013292;28;20208;-72
2022/04/14 08:03:26;;;;;;;7.82;6.85;;;;;;;-142.91;100.00;56616.03;5016738;28;21227;-73
2022/04/14 08:05:53;;;;;;;9.68;7.68;;;;;;;-142.91;100.00;56616.03;5016821;28;20208;-70
2022/04/14 08:08:22;;;;;;;7.93;7.22;;;;;;;-142.91;100.00;56616.03;5016371;28;20277;-71
2022/04/14 08:10:50;;;;;;;9.52;6.90;;;;;;;-142.91;100.00;56616.03;5016178;28;20242;-72
2022/04/14 08:13:19;;;;;;;10.40;7.55;;;;;;;-142.91;100.00;56616.03;5016556;28;20613;-73
2022/04/14 08:15:46;;;;;;;9.88;7.63;;;;;;;-142.91;100.00;56616.03;5016162;28;20259;-70
2022/04/14 08:18:14;;;;;;;8.40;7.32;;;;;;;-142.91;100.00;56616.03;5016950;28;20239;-71
2022/04/14 08:20:41;;;;;;;7.45;6.75;;;;;;;-142.91;100.00;56616.03;5015910;28;20287;-71
2022/04/14 08:23:12;;;;;;;12.98;7.30;;;;;;;-142.91;100.00;56616.03;5016321;28;20199;-71
2022/04/14 08:25:39;;;;;;;10.40;7.50;;;;;;;-142.91;100.00;56616.03;5016619;28;20200;-70
2022/04/14 08:28:07;;;;;;;11.27;7.05;;;;;;;-142.91;100.00;56616.03;5016777;28;20212;-70
2022/04/14 08:30:36;;;;;;;8.18;7.10;;;;;;;-142.91;100.00;56616.03;5015510;28;20235;-70
2022/04/14 08:33:06;;;;;;;8.05;6.57;;;;;;;-142.91;100.00;56616.03;5015774;28;21064;-70
2022/04/14 08:35:35;;;;;;;9.05;6.43;;;;;;;-142.91;100.00;56616.03;5015842;28;20214;-71
2022/04/14 08:38:03;;;;;;;12.43;6.45;;;;;;;-142.91;100.00;56616.03;5016715;28;20203;-70
2022/04/14 08:40:35;;;;;;;10.50;8.00;;;;;;;-142.91;100.00;56616.03;5015879;28;20646;-72
2022/04/14 08:43:04;;;;;;;10.88;7.05;;;;;;;-142.91;100.00;56616.03;5016127;28;20207;-72
2022/04/14 08:45:33;;;;;;;9.80;7.00;;;;;;;-142.91;100.00;56616.03;5015849;28;20257;-73
2022/04/14 08:48:00;;;;;;;7.07;6.38;;;;;;;-142.91;100.00;56616.03;5016333;28;20239;-71
2022/04/14 08:50:28;;;;;;;11.30;6.05;;;;;;;-142.91;100.00;56616.03;5015960;28;20324;-73
2022/04/14 08:52:57;;;;;;;7.97;6.35;;;;;;;-142.91;100.00;56616.03;5015859;28;20200;-71
2022/04/14 08:55:24;;;;;;;9.05;5.85;;;;;;;-142.91;100.00;56616.03;5015844;28;20207;-73
2022/04/14 08:57:51;;;;;;;14.55;6.50;;;;;;;-142.91;100.00;56616.03;5014991;28;20273;-72
2022/04/14 09:00:18;;;;;;;6.75;6.10;;;;;;;-142.91;100.00;56616.03;5008457;28;20235;-71
2022/04/14 09:02:46;;;;;;;7.32;5.15;;;;;;;-142.91;100.00;56616.03;5012937;28;20262;-71
2022/04/14 09:05:14;;;;;;;6.80;4.68;;;;;;;-142.91;100.00;56616.03;5017719;28;20199;-71
2022/04/14 09:07:42;;;;;;;6.15;4.80;;;;;;;-142.91;100.00;56616.03;5017667;28;20196;-71
2022/04/14 09:10:10;;;;;;;12.73;5.38;;;;;;;-142.91;100.00;56616.03;5017265;28;20259;-73
2022/04/14 09:12:38;;;;;;;6.45;5.82;;;;;;;-142.91;100.00;56616.03;5019059;28;20235;-71
2022/04/14 09:15:06;;;;;;;10.23;5.07;;;;;;;-142.91;100.00;56616.03;5020689;28;20203;-73
2022/04/14 09:17:33;;;;;;;5.70;4.90;;;;;;;-142.91;100.00;56616.03;5020045;28;20227;-72
2022/04/14 09:19:59;;;;;;;4.47;4.18;;;;;;;-142.91;100.00;56616.03;5020513;28;20199;-71
2022/04/14 09:22:26;;;;;;;7.55;5.70;;;;;;;-142.91;100.00;56616.03;5019393;28;20667;-70
2022/04/14 09:24:55;;;;;;;6.32;4.93;;;;;;;-142.91;100.00;56616.03;5020055;28;20207;-71
2022/04/14 09:27:28;;;;;;;8.40;3.90;;;;;;;-142.91;100.00;56616.03;5019953;28;20211;-72
2022/04/14 09:29:56;;;;;;;6.45;3.92;;;;;;;-142.91;100.00;56616.03;5020607;28;20231;-69
2022/04/14 09:32:31;;;;;;;5.95;4.18;;;;;;;-142.91;100.00;56616.03;5020220;28;20203;-69
2022/04/14 09:34:59;;;;;;;4.88;4.47;;;;;;;-142.91;100.00;56616.03;5020247;28;20210;-70
2022/04/14 09:37:27;;;;;;;4.30;3.90;;;;;;;-142.91;100.00;56616.03;5020452;28;20252;-72
2022/04/14 09:40:02;;;;;;;4.55;4.03;;;;;;;-142.91;100.00;56616.03;5019519;28;20286;-72
2022/04/14 09:42:32;;;;;;;7.35;5.28;;;;;;;-142.91;100.00;56616.03;5019993;28;20260;-72
2022/04/14 09:45:19;;;;;;;4.60;4.07;;;;;;;-142.91;100.00;56616.03;5020406;28;20200;-70
2022/04/14 09:47:46;;;;;;;4.50;4.13;;;;;;;-142.91;100.00;56616.03;5019796;28;20277;-72
2022/04/14 09:50:28;;;;;;;2.92;2.72;;;;;;;-142.91;100.00;56616.03;5019636;28;20312;-72
2022/04/14 09:52:59;;;;;;;3.97;3.67;;;;;;;-142.91;100.00;56616.03;5018946;28;20302;-71
2022/04/14 09:55:26;;;;;;;2.85;2.65;;;;;;;-142.91;100.00;56616.03;5019592;28;20204;-70
2022/04/14 09:58:11;;;;;;;3.28;2.92;;;;;;;-142.91;100.00;56616.03;5019690;28;20258;-71
2022/04/14 10:00:40;;;;;;;4.65;3.28;;;;;;;-142.91;100.00;56616.03;5019389;28;21544;-71
2022/04/14 10:03:12;;;;;;;5.18;4.78;;;;;;;-142.91;100.00;56616.03;5019257;28;20235;-71
2022/04/14 10:05:39;;;;;;;5.35;3.42;;;;;;;-142.91;100.00;56616.03;5019614;28;20207;-73
2022/04/14 10:08:08;;;;;;;3.88;3.38;;;;;;;-142.91;100.00;56616.03;5019337;28;20206;-72
2022/04/14 10:10:37;;;;;;;9.98;3.63;;;;;;;-142.91;100.00;56616.03;5020296;28;20242;-71
2022/04/14 10:13:05;;;;;;;4.03;3.63;;;;;;;-142.91;100.00;56616.03;5018830;28;20590;-72
2022/04/14 10:15:36;;;;;;;8.25;3.58;;;;;;;-142.91;100.00;56616.03;5018337;28;21568;-71
2022/04/14 10:18:09;;;;;;;4.88;3.97;;;;;;;-142.91;100.00;56616.03;5019056;28;20254;-71
2022/04/14 10:20:37;;;;;;;3.88;3.58;;;;;;;-142.91;100.00;56616.03;5019484;28;20266;-71
2022/04/14 10:23:05;;;;;;;3.53;3.10;;;;;;;-142.91;100.00;56616.03;5018665;28;20227;-72
2022/04/14 10:25:32;;;;;;;3.80;3.45;;;;;;;-142.91;100.00;56616.03;5018706;28;20285;-71
2022/04/14 10:28:00;;;;;;;5.63;3.35;;;;;;;-142.91;100.00;56616.03;5018440;28;20206;-74
2022/04/14 10:30:27;;;;;;;5.50;3.25;;;;;;;-142.91;100.00;56616.03;5018755;28;20239;-70
2022/04/14 10:32:57;;;;;;;3.33;3.10;;;;;;;-142.91;100.00;56616.03;5018672;28;20223;-70
2022/04/14 10:35:26;;;;;;;5.43;3.90;;;;;;;-142.91;100.00;56616.03;5018616;28;20296;-72
2022/04/14 10:38:01;;;;;;;4.53;3.33;;;;;;;-142.91;100.00;56616.03;5018439;28;20203;-71
2022/04/14 10:40:30;;;;;;;3.88;3.58;;;;;;;-142.91;100.00;56616.03;5018844;28;20301;-71
2022/04/14 10:42:58;;;;;;;4.47;3.97;;;;;;;-142.91;100.00;56616.03;5017679;28;20289;-70
2022/04/14 10:45:25;;;;;;;4.25;3.85;;;;;;;-142.91;100.00;56616.03;5018804;28;20726;-72
2022/04/14 10:47:58;;;;;;;6.85;3.35;;;;;;;-142.91;100.00;56616.03;5018358;28;20236;-71
2022/04/14 10:50:26;;;;;;;4.35;3.05;;;;;;;-142.91;100.00;56616.03;5018909;28;20259;-70
2022/04/14 10:53:12;;;;;;;3.80;3.50;;;;;;;-142.91;100.00;56616.03;5017547;28;20219;-73
2022/04/14 10:55:41;;;;;;;3.47;3.08;;;;;;;-142.91;100.00;56616.03;5018780;28;20204;-70
2022/04/14 10:58:29;;;;;;;3.58;3.25;;;;;;;-142.91;100.00;56616.03;5017892;28;20196;-71
2022/04/14 11:00:57;;;;;;;6.00;3.22;;;;;;;-142.91;100.00;56616.03;5019260;28;20897;-71
2022/04/14 11:03:45;;;;;;;4.60;2.95;;;;;;;-142.91;100.00;56616.03;5017682;28;20949;-71
2022/04/14 11:06:51;;;;;;;6.25;3.85;;;;;;;-142.91;100.00;56616.03;5018743;28;20196;-73
2022/04/14 11:09:57;;;;;;;4.88;3.60;;;;;;;-142.91;100.00;56616.03;5015833;28;20350;-72